sensor_id;sensor_type;location;lat;lon;timestamp;temperature;humidity
26049;DHT22;13822;51.568;5.086;2023-04-25T00:01:28;7.10;99.90
26049;DHT22;13822;51.568;5.086;2023-04-25T00:06:52;7.20;99.90
26049;DHT22;13822;51.568;5.086;2023-04-25T00:12:09;7.20;99.90
26049;DHT22;13822;51.568;5.086;2023-04-25T00:17:42;7.10;99.90
26049;DHT22;13822;51.568;5.086;2023-04-25T00:22:47;7.20;99.90
26049;DHT22;13822;51.568;5.086;2023-04-25T00:28:17;7.20;99.90
26049;DHT22;13822;51.568;5.086;2023-04-25T00:33:29;7.10;99.90
26049;DHT22;13822;51.568;5.086;2023-04-25T00:38:42;7.10;99.90
26049;DHT22;13822;51.568;5.086;2023-04-25T00:44:03;7.10;99.90
26049;DHT22;13822;51.568;5.086;2023-04-25T00:49:22;7.00;99.90
26049;DHT22;13822;51.568;5.086;2023-04-25T00:54:43;6.90;99.90
26049;DHT22;13822;51.568;5.086;2023-04-25T01:00:12;6.90;99.90
26049;DHT22;13822;51.568;5.086;2023-04-25T01:05:38;6.90;99.90
26049;DHT22;13822;51.568;5.086;2023-04-25T01:10:49;6.80;99.90
26049;DHT22;13822;51.568;5.086;2023-04-25T01:16:03;6.80;99.90
26049;DHT22;13822;51.568;5.086;2023-04-25T01:21:49;6.80;99.90
26049;DHT22;13822;51.568;5.086;2023-04-25T01:27:07;6.70;99.90
26049;DHT22;13822;51.568;5.086;2023-04-25T01:32:38;6.70;99.90
26049;DHT22;13822;51.568;5.086;2023-04-25T01:37:54;6.70;99.90
26049;DHT22;13822;51.568;5.086;2023-04-25T01:43:16;6.70;99.90
26049;DHT22;13822;51.568;5.086;2023-04-25T01:48:37;6.70;99.90
26049;DHT22;13822;51.568;5.086;2023-04-25T01:54:04;6.80;99.90
26049;DHT22;13822;51.568;5.086;2023-04-25T01:59:30;6.80;99.90
26049;DHT22;13822;51.568;5.086;2023-04-25T02:04:49;6.80;99.90
26049;DHT22;13822;51.568;5.086;2023-04-25T02:10:52;6.70;99.90
26049;DHT22;13822;51.568;5.086;2023-04-25T02:15:54;6.60;99.90
26049;DHT22;13822;51.568;5.086;2023-04-25T02:21:04;6.60;99.90
26049;DHT22;13822;51.568;5.086;2023-04-25T02:26:09;6.60;99.90
26049;DHT22;13822;51.568;5.086;2023-04-25T02:31:16;6.60;99.90
26049;DHT22;13822;51.568;5.086;2023-04-25T02:36:21;6.60;99.90
26049;DHT22;13822;51.568;5.086;2023-04-25T02:41:27;6.50;99.90
26049;DHT22;13822;51.568;5.086;2023-04-25T02:46:33;6.50;99.90
26049;DHT22;13822;51.568;5.086;2023-04-25T02:51:44;6.50;99.90
26049;DHT22;13822;51.568;5.086;2023-04-25T02:56:51;6.50;99.90
26049;DHT22;13822;51.568;5.086;2023-04-25T03:02:16;6.40;99.90
26049;DHT22;13822;51.568;5.086;2023-04-25T03:07:24;6.40;99.90
26049;DHT22;13822;51.568;5.086;2023-04-25T03:12:30;6.40;99.90
26049;DHT22;13822;51.568;5.086;2023-04-25T03:17:40;6.40;99.90
26049;DHT22;13822;51.568;5.086;2023-04-25T03:22:56;6.40;99.90
26049;DHT22;13822;51.568;5.086;2023-04-25T03:28:00;6.40;99.90
26049;DHT22;13822;51.568;5.086;2023-04-25T03:33:04;6.40;99.90
26049;DHT22;13822;51.568;5.086;2023-04-25T03:38:13;6.40;99.90
26049;DHT22;13822;51.568;5.086;2023-04-25T03:43:34;6.40;99.90
26049;DHT22;13822;51.568;5.086;2023-04-25T03:48:40;6.40;99.90
26049;DHT22;13822;51.568;5.086;2023-04-25T03:53:52;6.40;99.90
26049;DHT22;13822;51.568;5.086;2023-04-25T03:59:00;6.40;99.90
26049;DHT22;13822;51.568;5.086;2023-04-25T04:04:05;6.40;99.90
26049;DHT22;13822;51.568;5.086;2023-04-25T04:09:31;6.40;99.90
26049;DHT22;13822;51.568;5.086;2023-04-25T04:14:38;6.40;99.90
26049;DHT22;13822;51.568;5.086;2023-04-25T04:19:49;6.40;99.90
26049;DHT22;13822;51.568;5.086;2023-04-25T04:25:08;6.40;99.90
26049;DHT22;13822;51.568;5.086;2023-04-25T04:30:16;6.40;99.90
26049;DHT22;13822;51.568;5.086;2023-04-25T04:35:23;6.40;99.90
26049;DHT22;13822;51.568;5.086;2023-04-25T04:40:28;6.30;99.90
26049;DHT22;13822;51.568;5.086;2023-04-25T04:45:36;6.30;99.90
26049;DHT22;13822;51.568;5.086;2023-04-25T04:50:45;6.30;99.90
26049;DHT22;13822;51.568;5.086;2023-04-25T04:56:04;6.30;99.90
26049;DHT22;13822;51.568;5.086;2023-04-25T05:01:09;6.30;99.90
26049;DHT22;13822;51.568;5.086;2023-04-25T05:06:31;6.30;99.90
26049;DHT22;13822;51.568;5.086;2023-04-25T05:12:43;6.30;99.90
26049;DHT22;13822;51.568;5.086;2023-04-25T05:17:46;6.30;99.90
26049;DHT22;13822;51.568;5.086;2023-04-25T05:22:48;6.40;99.90
26049;DHT22;13822;51.568;5.086;2023-04-25T05:27:50;6.50;99.90
26049;DHT22;13822;51.568;5.086;2023-04-25T05:32:54;6.50;99.90
26049;DHT22;13822;51.568;5.086;2023-04-25T05:37:56;6.50;99.90
26049;DHT22;13822;51.568;5.086;2023-04-25T05:42:58;6.50;99.90
26049;DHT22;13822;51.568;5.086;2023-04-25T05:48:00;6.50;99.90
26049;DHT22;13822;51.568;5.086;2023-04-25T05:53:02;6.60;99.90
26049;DHT22;13822;51.568;5.086;2023-04-25T05:58:05;6.60;99.90
26049;DHT22;13822;51.568;5.086;2023-04-25T06:03:07;6.60;99.90
26049;DHT22;13822;51.568;5.086;2023-04-25T06:08:11;6.70;99.90
26049;DHT22;13822;51.568;5.086;2023-04-25T06:13:13;6.80;99.90
26049;DHT22;13822;51.568;5.086;2023-04-25T06:18:15;6.90;99.90
26049;DHT22;13822;51.568;5.086;2023-04-25T06:23:17;6.90;99.90
26049;DHT22;13822;51.568;5.086;2023-04-25T06:28:19;7.00;99.90
26049;DHT22;13822;51.568;5.086;2023-04-25T06:33:23;7.00;99.90
26049;DHT22;13822;51.568;5.086;2023-04-25T06:38:25;7.10;99.90
26049;DHT22;13822;51.568;5.086;2023-04-25T06:43:27;7.20;99.90
26049;DHT22;13822;51.568;5.086;2023-04-25T06:48:29;7.30;99.90
26049;DHT22;13822;51.568;5.086;2023-04-25T06:53:31;7.30;99.90
26049;DHT22;13822;51.568;5.086;2023-04-25T06:58:33;7.40;99.90
26049;DHT22;13822;51.568;5.086;2023-04-25T07:03:35;7.50;99.90
26049;DHT22;13822;51.568;5.086;2023-04-25T07:08:39;7.50;99.90
26049;DHT22;13822;51.568;5.086;2023-04-25T07:13:40;7.60;99.90
26049;DHT22;13822;51.568;5.086;2023-04-25T07:18:42;7.50;99.90
26049;DHT22;13822;51.568;5.086;2023-04-25T07:23:44;7.70;99.90
26049;DHT22;13822;51.568;5.086;2023-04-25T07:28:46;7.80;99.90
26049;DHT22;13822;51.568;5.086;2023-04-25T07:33:52;7.80;99.90
26049;DHT22;13822;51.568;5.086;2023-04-25T07:38:54;7.90;99.90
26049;DHT22;13822;51.568;5.086;2023-04-25T07:43:56;7.90;99.90
26049;DHT22;13822;51.568;5.086;2023-04-25T07:48:58;7.80;99.90
26049;DHT22;13822;51.568;5.086;2023-04-25T07:54:00;7.80;99.90
26049;DHT22;13822;51.568;5.086;2023-04-25T07:59:02;7.80;99.90
26049;DHT22;13822;51.568;5.086;2023-04-25T08:04:04;7.90;99.90
26049;DHT22;13822;51.568;5.086;2023-04-25T08:09:07;7.90;99.90
26049;DHT22;13822;51.568;5.086;2023-04-25T08:14:11;8.00;99.90
26049;DHT22;13822;51.568;5.086;2023-04-25T08:19:13;8.00;99.90
26049;DHT22;13822;51.568;5.086;2023-04-25T08:24:15;8.10;99.90
26049;DHT22;13822;51.568;5.086;2023-04-25T08:29:17;8.10;99.90
26049;DHT22;13822;51.568;5.086;2023-04-25T08:34:19;8.20;99.90
26049;DHT22;13822;51.568;5.086;2023-04-25T08:39:22;8.40;99.90
26049;DHT22;13822;51.568;5.086;2023-04-25T08:44:24;8.50;99.90
26049;DHT22;13822;51.568;5.086;2023-04-25T08:49:26;8.60;99.90
26049;DHT22;13822;51.568;5.086;2023-04-25T08:54:28;8.70;99.90
26049;DHT22;13822;51.568;5.086;2023-04-25T08:59:36;8.90;99.90
26049;DHT22;13822;51.568;5.086;2023-04-25T09:04:40;8.90;99.90
26049;DHT22;13822;51.568;5.086;2023-04-25T09:09:46;9.10;99.90
26049;DHT22;13822;51.568;5.086;2023-04-25T09:15:04;9.10;99.90
26049;DHT22;13822;51.568;5.086;2023-04-25T09:20:09;9.20;99.90
26049;DHT22;13822;51.568;5.086;2023-04-25T09:25:13;9.40;99.90
26049;DHT22;13822;51.568;5.086;2023-04-25T09:30:16;9.50;99.90
26049;DHT22;13822;51.568;5.086;2023-04-25T09:35:25;9.70;99.90
26049;DHT22;13822;51.568;5.086;2023-04-25T09:40:28;9.90;99.90
26049;DHT22;13822;51.568;5.086;2023-04-25T09:45:31;10.00;99.90
26049;DHT22;13822;51.568;5.086;2023-04-25T09:50:33;10.10;99.90
26049;DHT22;13822;51.568;5.086;2023-04-25T09:55:35;10.30;99.90
26049;DHT22;13822;51.568;5.086;2023-04-25T10:00:37;10.40;99.90
26049;DHT22;13822;51.568;5.086;2023-04-25T10:05:39;10.50;99.90
26049;DHT22;13822;51.568;5.086;2023-04-25T10:10:42;10.50;99.90
26049;DHT22;13822;51.568;5.086;2023-04-25T10:15:44;10.40;99.90
26049;DHT22;13822;51.568;5.086;2023-04-25T10:20:47;10.30;99.90
26049;DHT22;13822;51.568;5.086;2023-04-25T10:25:53;10.10;99.90
26049;DHT22;13822;51.568;5.086;2023-04-25T10:30:59;10.00;99.90
26049;DHT22;13822;51.568;5.086;2023-04-25T10:36:09;10.00;99.90
26049;DHT22;13822;51.568;5.086;2023-04-25T10:41:15;10.10;99.90
26049;DHT22;13822;51.568;5.086;2023-04-25T10:46:27;10.20;99.90
26049;DHT22;13822;51.568;5.086;2023-04-25T10:51:32;10.30;99.90
26049;DHT22;13822;51.568;5.086;2023-04-25T10:56:55;10.30;99.90
26049;DHT22;13822;51.568;5.086;2023-04-25T11:01:59;10.20;99.90
26049;DHT22;13822;51.568;5.086;2023-04-25T11:07:57;10.00;99.90
26049;DHT22;13822;51.568;5.086;2023-04-25T11:12:41;10.20;99.90
26049;DHT22;13822;51.568;5.086;2023-04-25T11:17:43;10.20;99.90
26049;DHT22;13822;51.568;5.086;2023-04-25T11:22:48;10.00;99.90
26049;DHT22;13822;51.568;5.086;2023-04-25T11:27:53;9.80;99.90
26049;DHT22;13822;51.568;5.086;2023-04-25T11:32:57;9.50;99.90
26049;DHT22;13822;51.568;5.086;2023-04-25T11:38:01;9.30;99.90
26049;DHT22;13822;51.568;5.086;2023-04-25T11:43:03;9.30;99.90
26049;DHT22;13822;51.568;5.086;2023-04-25T11:48:05;9.30;99.90
26049;DHT22;13822;51.568;5.086;2023-04-25T11:53:07;9.60;99.90
26049;DHT22;13822;51.568;5.086;2023-04-25T11:58:09;10.50;99.90
26049;DHT22;13822;51.568;5.086;2023-04-25T12:03:11;11.50;99.90
26049;DHT22;13822;51.568;5.086;2023-04-25T12:08:14;12.30;99.90
26049;DHT22;13822;51.568;5.086;2023-04-25T12:13:20;12.50;99.90
26049;DHT22;13822;51.568;5.086;2023-04-25T12:18:26;12.00;98.30
26049;DHT22;13822;51.568;5.086;2023-04-25T12:23:29;11.50;97.80
26049;DHT22;13822;51.568;5.086;2023-04-25T12:28:32;11.00;99.10
26049;DHT22;13822;51.568;5.086;2023-04-25T12:33:35;10.70;99.90
26049;DHT22;13822;51.568;5.086;2023-04-25T12:38:38;10.40;99.90
26049;DHT22;13822;51.568;5.086;2023-04-25T12:43:41;10.30;98.20
26049;DHT22;13822;51.568;5.086;2023-04-25T12:48:43;10.50;99.90
26049;DHT22;13822;51.568;5.086;2023-04-25T12:53:46;11.30;99.90
26049;DHT22;13822;51.568;5.086;2023-04-25T12:58:48;12.40;99.50
26049;DHT22;13822;51.568;5.086;2023-04-25T13:03:51;12.90;99.90
26049;DHT22;13822;51.568;5.086;2023-04-25T13:08:53;12.50;96.00
26049;DHT22;13822;51.568;5.086;2023-04-25T13:13:55;12.00;94.70
26049;DHT22;13822;51.568;5.086;2023-04-25T13:18:57;11.70;97.50
26049;DHT22;13822;51.568;5.086;2023-04-25T13:23:59;11.80;98.20
26049;DHT22;13822;51.568;5.086;2023-04-25T13:29:01;11.90;96.80
26049;DHT22;13822;51.568;5.086;2023-04-25T13:34:05;11.70;96.80
26049;DHT22;13822;51.568;5.086;2023-04-25T13:39:07;11.40;97.60
26049;DHT22;13822;51.568;5.086;2023-04-25T13:44:09;11.70;99.30
26049;DHT22;13822;51.568;5.086;2023-04-25T13:49:11;12.40;94.60
26049;DHT22;13822;51.568;5.086;2023-04-25T13:54:14;13.40;93.30
26049;DHT22;13822;51.568;5.086;2023-04-25T13:59:19;13.70;78.20
26049;DHT22;13822;51.568;5.086;2023-04-25T14:04:23;13.60;75.80
26049;DHT22;13822;51.568;5.086;2023-04-25T14:09:26;13.30;74.20
26049;DHT22;13822;51.568;5.086;2023-04-25T14:14:28;12.80;76.00
26049;DHT22;13822;51.568;5.086;2023-04-25T14:19:30;12.30;76.70
26049;DHT22;13822;51.568;5.086;2023-04-25T14:24:32;12.50;81.80
26049;DHT22;13822;51.568;5.086;2023-04-25T14:29:34;12.50;79.40
26049;DHT22;13822;51.568;5.086;2023-04-25T14:34:36;12.50;74.50
26049;DHT22;13822;51.568;5.086;2023-04-25T14:39:38;13.10;74.80
26049;DHT22;13822;51.568;5.086;2023-04-25T14:44:40;13.70;68.80
26049;DHT22;13822;51.568;5.086;2023-04-25T14:49:42;14.20;66.60
26049;DHT22;13822;51.568;5.086;2023-04-25T14:54:45;14.60;77.20
26049;DHT22;13822;51.568;5.086;2023-04-25T14:59:47;14.50;65.30
26049;DHT22;13822;51.568;5.086;2023-04-25T15:04:49;13.90;69.20
26049;DHT22;13822;51.568;5.086;2023-04-25T15:09:51;13.00;71.00
26049;DHT22;13822;51.568;5.086;2023-04-25T15:14:55;12.30;78.60
26049;DHT22;13822;51.568;5.086;2023-04-25T15:19:57;12.10;80.60
26049;DHT22;13822;51.568;5.086;2023-04-25T15:24:58;12.60;82.80
26049;DHT22;13822;51.568;5.086;2023-04-25T15:30:00;13.10;80.30
26049;DHT22;13822;51.568;5.086;2023-04-25T15:35:03;13.70;77.70
26049;DHT22;13822;51.568;5.086;2023-04-25T15:40:08;13.60;77.20
26049;DHT22;13822;51.568;5.086;2023-04-25T15:45:16;13.60;81.30
26049;DHT22;13822;51.568;5.086;2023-04-25T15:50:18;13.40;75.80
26049;DHT22;13822;51.568;5.086;2023-04-25T15:55:20;13.40;77.00
26049;DHT22;13822;51.568;5.086;2023-04-25T16:00:23;13.60;76.90
26049;DHT22;13822;51.568;5.086;2023-04-25T16:05:25;13.50;75.50
26049;DHT22;13822;51.568;5.086;2023-04-25T16:10:27;13.50;75.30
26049;DHT22;13822;51.568;5.086;2023-04-25T16:15:29;13.10;73.20
26049;DHT22;13822;51.568;5.086;2023-04-25T16:20:35;13.00;74.30
26049;DHT22;13822;51.568;5.086;2023-04-25T16:25:37;13.00;68.30
26049;DHT22;13822;51.568;5.086;2023-04-25T16:30:39;13.00;70.30
26049;DHT22;13822;51.568;5.086;2023-04-25T16:35:41;13.00;72.20
26049;DHT22;13822;51.568;5.086;2023-04-25T16:40:43;12.40;69.10
26049;DHT22;13822;51.568;5.086;2023-04-25T16:45:45;12.10;70.40
26049;DHT22;13822;51.568;5.086;2023-04-25T16:50:47;12.00;66.20
26049;DHT22;13822;51.568;5.086;2023-04-25T16:55:49;11.90;63.30
26049;DHT22;13822;51.568;5.086;2023-04-25T17:00:51;11.70;67.80
26049;DHT22;13822;51.568;5.086;2023-04-25T17:05:54;11.70;67.40
26049;DHT22;13822;51.568;5.086;2023-04-25T17:11:01;11.80;69.00
26049;DHT22;13822;51.568;5.086;2023-04-25T17:16:04;11.60;66.10
26049;DHT22;13822;51.568;5.086;2023-04-25T17:21:06;11.20;73.80
26049;DHT22;13822;51.568;5.086;2023-04-25T17:26:09;10.80;74.10
26049;DHT22;13822;51.568;5.086;2023-04-25T17:31:12;10.60;76.50
26049;DHT22;13822;51.568;5.086;2023-04-25T17:36:14;10.40;81.90
26049;DHT22;13822;51.568;5.086;2023-04-25T17:41:16;10.30;81.90
26049;DHT22;13822;51.568;5.086;2023-04-25T17:46:19;10.10;82.00
26049;DHT22;13822;51.568;5.086;2023-04-25T17:51:22;9.90;83.70
26049;DHT22;13822;51.568;5.086;2023-04-25T17:56:24;9.70;83.90
26049;DHT22;13822;51.568;5.086;2023-04-25T18:01:28;9.40;81.40
26049;DHT22;13822;51.568;5.086;2023-04-25T18:06:31;9.30;81.30
26049;DHT22;13822;51.568;5.086;2023-04-25T18:11:33;9.10;81.30
26049;DHT22;13822;51.568;5.086;2023-04-25T18:16:35;9.00;84.60
26049;DHT22;13822;51.568;5.086;2023-04-25T18:21:37;9.00;86.20
26049;DHT22;13822;51.568;5.086;2023-04-25T18:26:42;8.90;83.60
26049;DHT22;13822;51.568;5.086;2023-04-25T18:31:45;8.80;86.00
26049;DHT22;13822;51.568;5.086;2023-04-25T18:36:50;8.80;90.90
26049;DHT22;13822;51.568;5.086;2023-04-25T18:41:53;8.60;86.60
26049;DHT22;13822;51.568;5.086;2023-04-25T18:47:07;8.50;89.60
26049;DHT22;13822;51.568;5.086;2023-04-25T18:52:10;8.40;89.90
26049;DHT22;13822;51.568;5.086;2023-04-25T18:57:15;8.30;90.60
26049;DHT22;13822;51.568;5.086;2023-04-25T19:02:18;8.20;91.60
26049;DHT22;13822;51.568;5.086;2023-04-25T19:07:20;8.10;91.70
26049;DHT22;13822;51.568;5.086;2023-04-25T19:12:24;8.00;92.60
26049;DHT22;13822;51.568;5.086;2023-04-25T19:17:26;7.90;93.00
26049;DHT22;13822;51.568;5.086;2023-04-25T19:22:30;7.80;94.20
26049;DHT22;13822;51.568;5.086;2023-04-25T19:27:33;7.80;94.80
26049;DHT22;13822;51.568;5.086;2023-04-25T19:32:35;7.70;96.40
26049;DHT22;13822;51.568;5.086;2023-04-25T19:37:40;7.60;96.30
26049;DHT22;13822;51.568;5.086;2023-04-25T19:42:54;7.60;97.00
26049;DHT22;13822;51.568;5.086;2023-04-25T19:47:57;7.50;98.30
26049;DHT22;13822;51.568;5.086;2023-04-25T19:53:01;7.40;98.30
26049;DHT22;13822;51.568;5.086;2023-04-25T19:58:11;7.40;99.80
26049;DHT22;13822;51.568;5.086;2023-04-25T20:03:19;7.30;99.90
26049;DHT22;13822;51.568;5.086;2023-04-25T20:08:42;7.20;99.90
26049;DHT22;13822;51.568;5.086;2023-04-25T20:13:58;7.10;99.90
26049;DHT22;13822;51.568;5.086;2023-04-25T20:19:00;7.00;99.90
26049;DHT22;13822;51.568;5.086;2023-04-25T20:24:05;7.00;99.90
26049;DHT22;13822;51.568;5.086;2023-04-25T20:29:11;6.80;99.90
26049;DHT22;13822;51.568;5.086;2023-04-25T20:34:29;6.80;99.90
26049;DHT22;13822;51.568;5.086;2023-04-25T20:39:43;6.60;99.90
26049;DHT22;13822;51.568;5.086;2023-04-25T20:44:52;6.50;99.90
26049;DHT22;13822;51.568;5.086;2023-04-25T20:50:01;6.50;99.90
26049;DHT22;13822;51.568;5.086;2023-04-25T20:55:08;6.40;99.90
26049;DHT22;13822;51.568;5.086;2023-04-25T21:00:13;6.30;99.90
26049;DHT22;13822;51.568;5.086;2023-04-25T21:05:32;6.30;99.90
26049;DHT22;13822;51.568;5.086;2023-04-25T21:10:37;6.20;99.90
26049;DHT22;13822;51.568;5.086;2023-04-25T21:15:45;6.20;99.90
26049;DHT22;13822;51.568;5.086;2023-04-25T21:20:51;6.10;99.90
26049;DHT22;13822;51.568;5.086;2023-04-25T21:25:53;6.00;99.90
26049;DHT22;13822;51.568;5.086;2023-04-25T21:30:55;6.00;99.90
26049;DHT22;13822;51.568;5.086;2023-04-25T21:35:59;5.90;99.90
26049;DHT22;13822;51.568;5.086;2023-04-25T21:41:02;5.90;99.90
26049;DHT22;13822;51.568;5.086;2023-04-25T21:46:04;5.80;99.90
26049;DHT22;13822;51.568;5.086;2023-04-25T21:51:25;5.90;99.90
26049;DHT22;13822;51.568;5.086;2023-04-25T21:56:27;5.90;99.90
26049;DHT22;13822;51.568;5.086;2023-04-25T22:01:29;5.90;99.90
26049;DHT22;13822;51.568;5.086;2023-04-25T22:06:34;5.90;99.90
26049;DHT22;13822;51.568;5.086;2023-04-25T22:11:42;5.70;99.90
26049;DHT22;13822;51.568;5.086;2023-04-25T22:16:44;5.70;99.90
26049;DHT22;13822;51.568;5.086;2023-04-25T22:21:47;5.80;99.90
26049;DHT22;13822;51.568;5.086;2023-04-25T22:26:53;5.80;99.90
26049;DHT22;13822;51.568;5.086;2023-04-25T22:31:56;5.90;99.90
26049;DHT22;13822;51.568;5.086;2023-04-25T22:37:06;5.80;99.90
26049;DHT22;13822;51.568;5.086;2023-04-25T22:42:18;5.80;99.90
26049;DHT22;13822;51.568;5.086;2023-04-25T22:47:24;5.80;99.90
26049;DHT22;13822;51.568;5.086;2023-04-25T22:52:29;5.70;99.90
26049;DHT22;13822;51.568;5.086;2023-04-25T22:57:31;5.70;99.90
26049;DHT22;13822;51.568;5.086;2023-04-25T23:02:34;5.60;99.90
26049;DHT22;13822;51.568;5.086;2023-04-25T23:07:36;5.50;99.90
26049;DHT22;13822;51.568;5.086;2023-04-25T23:12:39;5.50;99.90
26049;DHT22;13822;51.568;5.086;2023-04-25T23:17:44;5.40;99.90
26049;DHT22;13822;51.568;5.086;2023-04-25T23:22:48;5.40;99.90
26049;DHT22;13822;51.568;5.086;2023-04-25T23:27:57;5.30;99.90
26049;DHT22;13822;51.568;5.086;2023-04-25T23:32:59;5.30;99.90
26049;DHT22;13822;51.568;5.086;2023-04-25T23:38:01;5.30;99.90
26049;DHT22;13822;51.568;5.086;2023-04-25T23:43:06;5.30;99.90
26049;DHT22;13822;51.568;5.086;2023-04-25T23:48:12;5.20;99.90
26049;DHT22;13822;51.568;5.086;2023-04-25T23:53:15;5.20;99.90
26049;DHT22;13822;51.568;5.086;2023-04-25T23:58:19;5.20;99.90
